Time,TemperatureF,DewpointF,PressureIn,WindDirection,WindDirectionDegrees,WindSpeedMPH,WindSpeedGustMPH,Humidity,HourlyPrecipIn,Conditions,Clouds,dailyrainin,SoftwareType,DateUTC
2013-05-29 00:04:00,56.8,56.0,30.05,West,271,0.0,0.0,98,0.00,,,0.00,weatherlink.com 1.10,2013-05-29 04:04:00,
2013-05-29 00:19:00,56.7,56.0,30.04,West,263,0.0,0.0,98,0.00,,,0.00,weatherlink.com 1.10,2013-05-29 04:19:00,
2013-05-29 00:34:00,56.8,56.0,30.05,West,266,0.0,0.0,98,0.00,,,0.00,weatherlink.com 1.10,2013-05-29 04:34:00,
2013-05-29 00:49:00,56.8,56.0,30.04,West,266,0.0,0.0,98,0.00,,,0.00,weatherlink.com 1.10,2013-05-29 04:49:00,
2013-05-29 01:04:00,56.9,57.0,30.04,West,266,0.0,0.0,99,0.00,,,0.00,weatherlink.com 1.10,2013-05-29 05:04:00,
2013-05-29 01:19:00,56.3,56.0,30.04,West,266,0.0,0.0,98,0.00,,,0.00,weatherlink.com 1.10,2013-05-29 05:19:00,
2013-05-29 01:34:00,-999.0,-99.9,30.03,North,-999,-999.0,-999.0,-999,0.00,,,0.00,weatherlink.com 1.10,2013-05-29 05:34:00,
2013-05-29 01:50:00,-999.0,-99.9,30.02,North,-999,-999.0,-999.0,-999,0.00,,,0.00,weatherlink.com 1.10,2013-05-29 05:50:00,
2013-05-29 02:05:00,-999.0,-99.9,30.02,North,-999,-999.0,-999.0,-999,0.00,,,0.00,weatherlink.com 1.10,2013-05-29 06:05:00,
2013-05-29 02:20:00,-999.0,-99.9,30.02,North,-999,-999.0,-999.0,-999,0.00,,,0.00,weatherlink.com 1.10,2013-05-29 06:20:00,
2013-05-29 02:35:00,-999.0,-99.9,30.01,North,-999,-999.0,-999.0,-999,0.00,,,0.00,weatherlink.com 1.10,2013-05-29 06:35:00,
2013-05-29 02:50:00,-999.0,-99.9,30.01,North,-999,-999.0,-999.0,-999,0.00,,,0.00,weatherlink.com 1.10,2013-05-29 06:50:00,
2013-05-29 03:05:00,-999.0,-99.9,30.00,North,-999,-999.0,-999.0,-999,0.00,,,0.00,weatherlink.com 1.10,2013-05-29 07:05:00,
2013-05-29 03:20:00,-999.0,-99.9,30.00,North,-999,-999.0,-999.0,-999,0.00,,,0.00,weatherlink.com 1.10,2013-05-29 07:20:00,
2013-05-29 03:35:00,-999.0,-99.9,30.00,North,-999,-999.0,-999.0,-999,0.00,,,0.00,weatherlink.com 1.10,2013-05-29 07:35:00,
2013-05-29 03:50:00,-999.0,-99.9,30.00,North,-999,-999.0,-999.0,-999,0.00,,,0.00,weatherlink.com 1.10,2013-05-29 07:50:00,
2013-05-29 04:05:00,-999.0,-99.9,30.00,North,-999,-999.0,-999.0,-999,0.00,,,0.00,weatherlink.com 1.10,2013-05-29 08:05:00,
2013-05-29 04:20:00,-999.0,-99.9,30.00,North,-999,-999.0,-999.0,-999,0.00,,,0.00,weatherlink.com 1.10,2013-05-29 08:20:00,
2013-05-29 04:35:00,-999.0,-99.9,30.00,North,-999,-999.0,-999.0,-999,0.00,,,0.00,weatherlink.com 1.10,2013-05-29 08:35:00,
2013-05-29 04:50:00,-999.0,-99.9,30.00,North,-999,-999.0,-999.0,-999,0.00,,,0.00,weatherlink.com 1.10,2013-05-29 08:50:00,
2013-05-29 05:05:00,-999.0,-99.9,30.00,North,-999,-999.0,-999.0,-999,0.00,,,0.00,weatherlink.com 1.10,2013-05-29 09:05:00,
2013-05-29 05:21:00,-999.0,-99.9,30.00,North,-999,-999.0,-999.0,-999,0.00,,,0.00,weatherlink.com 1.10,2013-05-29 09:21:00,
2013-05-29 05:36:00,-999.0,-99.9,30.00,North,-999,-999.0,-999.0,-999,0.00,,,0.00,weatherlink.com 1.10,2013-05-29 09:36:00,
2013-05-29 05:51:00,-999.0,-99.9,30.00,North,-999,-999.0,-999.0,-999,0.00,,,0.00,weatherlink.com 1.10,2013-05-29 09:51:00,
2013-05-29 06:06:00,-999.0,-99.9,30.00,North,-999,-999.0,-999.0,-999,0.00,,,0.00,weatherlink.com 1.10,2013-05-29 10:06:00,
2013-05-29 06:21:00,-999.0,-99.9,30.01,North,-999,-999.0,-999.0,-999,0.00,,,0.00,weatherlink.com 1.10,2013-05-29 10:21:00,
2013-05-29 06:36:00,-999.0,-99.9,30.01,North,-999,-999.0,-999.0,-999,0.00,,,0.00,weatherlink.com 1.10,2013-05-29 10:36:00,
2013-05-29 06:51:00,-999.0,-99.9,30.01,North,-999,-999.0,-999.0,-999,0.00,,,0.00,weatherlink.com 1.10,2013-05-29 10:51:00,
2013-05-29 07:06:00,-999.0,-99.9,30.01,North,-999,-999.0,-999.0,-999,0.00,,,0.00,weatherlink.com 1.10,2013-05-29 11:06:00,
2013-05-29 07:21:00,58.4,58.0,30.01,ENE,57,0.0,0.0,99,0.00,,,0.00,weatherlink.com 1.10,2013-05-29 11:21:00,
2013-05-29 07:36:00,58.7,59.0,30.02,NE,56,0.0,0.0,99,0.00,,,0.00,weatherlink.com 1.10,2013-05-29 11:36:00,
2013-05-29 07:51:00,59.0,59.0,30.02,ENE,61,0.0,0.0,99,0.00,,,0.00,weatherlink.com 1.10,2013-05-29 11:51:00,
2013-05-29 08:06:00,59.3,59.0,30.01,ESE,122,0.0,0.0,99,0.00,,,0.00,weatherlink.com 1.10,2013-05-29 12:06:00,
2013-05-29 08:21:00,59.6,59.0,30.02,ESE,120,0.0,0.0,99,0.00,,,0.00,weatherlink.com 1.10,2013-05-29 12:21:00,
2013-05-29 08:36:00,59.9,60.0,30.02,ESE,117,0.0,2.0,99,0.00,,,0.00,weatherlink.com 1.10,2013-05-29 12:36:00,
2013-05-29 08:51:00,60.4,60.0,30.02,ESE,117,0.0,0.0,99,0.00,,,0.00,weatherlink.com 1.10,2013-05-29 12:51:00,
2013-05-29 09:06:00,60.8,61.0,30.02,SE,128,1.0,2.0,99,0.00,,,0.00,weatherlink.com 1.10,2013-05-29 13:06:00,
2013-05-29 09:21:00,61.2,61.0,30.03,ESE,120,0.0,0.0,99,0.00,,,0.00,weatherlink.com 1.10,2013-05-29 13:21:00,
2013-05-29 09:36:00,61.7,62.0,30.02,ESE,112,0.0,0.0,99,0.00,,,0.00,weatherlink.com 1.10,2013-05-29 13:36:00,
2013-05-29 09:51:00,62.5,62.0,30.02,SE,131,2.0,3.0,99,0.00,,,0.00,weatherlink.com 1.10,2013-05-29 13:51:00,
2013-05-29 10:06:00,63.2,63.0,30.02,SE,127,0.0,2.0,99,0.00,,,0.00,weatherlink.com 1.10,2013-05-29 14:06:00,
2013-05-29 10:21:00,63.7,63.0,30.02,SSE,148,2.0,4.0,98,0.00,,,0.00,weatherlink.com 1.10,2013-05-29 14:21:00,
2013-05-29 10:36:00,64.9,65.0,30.02,SE,142,3.0,4.0,99,0.00,,,0.00,weatherlink.com 1.10,2013-05-29 14:36:00,
2013-05-29 10:52:00,66.0,66.0,30.02,SE,138,3.0,5.0,98,0.00,,,0.00,weatherlink.com 1.10,2013-05-29 14:52:00,
2013-05-29 11:07:00,66.6,66.0,30.02,SE,130,3.0,5.0,97,0.00,,,0.00,weatherlink.com 1.10,2013-05-29 15:07:00,
2013-05-29 11:22:00,66.8,66.0,30.02,SE,141,3.0,7.0,97,0.00,,,0.00,weatherlink.com 1.10,2013-05-29 15:22:00,
2013-05-29 11:37:00,67.2,67.0,30.01,SE,141,2.0,5.0,98,0.00,,,0.00,weatherlink.com 1.10,2013-05-29 15:37:00,
2013-05-29 11:52:00,68.3,68.0,30.01,SE,144,2.0,6.0,97,0.00,,,0.00,weatherlink.com 1.10,2013-05-29 15:52:00,
2013-05-29 12:07:00,68.8,68.0,30.01,East,80,1.0,6.0,96,0.00,,,0.00,weatherlink.com 1.10,2013-05-29 16:07:00,
2013-05-29 12:22:00,69.6,68.0,30.01,SE,124,2.0,5.0,95,0.00,,,0.00,weatherlink.com 1.10,2013-05-29 16:22:00,
2013-05-29 12:37:00,71.0,68.0,30.00,SE,128,2.0,5.0,90,0.00,,,0.00,weatherlink.com 1.10,2013-05-29 16:37:00,
2013-05-29 12:52:00,72.9,69.0,30.00,SE,131,3.0,5.0,87,0.00,,,0.00,weatherlink.com 1.10,2013-05-29 16:52:00,
2013-05-29 13:07:00,74.3,69.0,30.00,SSE,160,2.0,7.0,83,0.00,,,0.00,weatherlink.com 1.10,2013-05-29 17:07:00,
2013-05-29 13:22:00,75.4,70.0,30.00,SSE,159,1.0,7.0,82,0.00,,,0.00,weatherlink.com 1.10,2013-05-29 17:22:00,
2013-05-29 13:37:00,76.7,70.0,29.99,SSW,207,3.0,7.0,79,0.00,,,0.00,weatherlink.com 1.10,2013-05-29 17:37:00,
2013-05-29 13:52:00,78.6,71.0,29.99,ESE,121,3.0,6.0,77,0.00,,,0.00,weatherlink.com 1.10,2013-05-29 17:52:00,
2013-05-29 14:07:00,79.8,70.0,29.98,SE,131,1.0,7.0,73,0.00,,,0.00,weatherlink.com 1.10,2013-05-29 18:07:00,
2013-05-29 14:22:00,81.5,71.0,29.98,South,184,3.0,9.0,71,0.00,,,0.00,weatherlink.com 1.10,2013-05-29 18:22:00,
2013-05-29 14:37:00,82.7,72.0,29.97,SSE,149,5.0,8.0,69,0.00,,,0.00,weatherlink.com 1.10,2013-05-29 18:37:00,
2013-05-29 14:52:00,83.6,72.0,29.96,WSW,252,4.0,11.0,67,0.00,,,0.00,weatherlink.com 1.10,2013-05-29 18:52:00,
2013-05-29 15:08:00,84.5,71.0,29.96,SE,139,1.0,8.0,65,0.00,,,0.00,weatherlink.com 1.10,2013-05-29 19:08:00,
2013-05-29 15:23:00,84.8,71.0,29.96,NNE,23,2.0,9.0,64,0.00,,,0.00,weatherlink.com 1.10,2013-05-29 19:23:00,
2013-05-29 15:38:00,85.1,71.0,29.96,ESE,119,6.0,9.0,62,0.00,,,0.00,weatherlink.com 1.10,2013-05-29 19:38:00,
2013-05-29 15:53:00,85.7,71.0,29.95,SSE,160,3.0,11.0,61,0.00,,,0.00,weatherlink.com 1.10,2013-05-29 19:53:00,
2013-05-29 16:08:00,85.9,70.0,29.94,SE,126,6.0,8.0,59,0.00,,,0.00,weatherlink.com 1.10,2013-05-29 20:08:00,
2013-05-29 16:23:00,86.7,71.0,29.94,SSE,165,1.0,7.0,59,0.00,,,0.00,weatherlink.com 1.10,2013-05-29 20:23:00,
2013-05-29 16:38:00,86.6,70.0,29.94,SSE,148,2.0,9.0,57,0.00,,,0.00,weatherlink.com 1.10,2013-05-29 20:38:00,
2013-05-29 16:53:00,86.1,69.0,29.94,SSE,149,3.0,7.0,57,0.00,,,0.00,weatherlink.com 1.10,2013-05-29 20:53:00,
2013-05-29 17:08:00,86.1,69.0,29.93,SE,124,3.0,8.0,57,0.00,,,0.00,weatherlink.com 1.10,2013-05-29 21:08:00,
2013-05-29 17:23:00,86.4,69.0,29.93,WSW,243,3.0,6.0,57,0.00,,,0.00,weatherlink.com 1.10,2013-05-29 21:23:00,
2013-05-29 17:38:00,86.5,70.0,29.93,SE,132,1.0,5.0,58,0.00,,,0.00,weatherlink.com 1.10,2013-05-29 21:38:00,
2013-05-29 17:53:00,87.0,70.0,29.93,SSW,200,3.0,6.0,57,0.00,,,0.00,weatherlink.com 1.10,2013-05-29 21:53:00,
2013-05-29 18:08:00,86.1,70.0,29.93,WSW,246,1.0,6.0,58,0.00,,,0.00,weatherlink.com 1.10,2013-05-29 22:08:00,
2013-05-29 18:23:00,86.9,70.0,29.92,SE,142,0.0,3.0,57,0.00,,,0.00,weatherlink.com 1.10,2013-05-29 22:23:00,
2013-05-29 18:38:00,86.7,69.0,29.92,SE,132,2.0,5.0,56,0.00,,,0.00,weatherlink.com 1.10,2013-05-29 22:38:00,
2013-05-29 18:53:00,86.1,69.0,29.92,SE,146,2.0,5.0,56,0.00,,,0.00,weatherlink.com 1.10,2013-05-29 22:53:00,
2013-05-29 19:08:00,85.9,68.0,29.92,South,181,2.0,3.0,56,0.00,,,0.00,weatherlink.com 1.10,2013-05-29 23:08:00,
2013-05-29 19:23:00,85.1,69.0,29.92,SE,134,1.0,3.0,58,0.00,,,0.00,weatherlink.com 1.10,2013-05-29 23:23:00,
2013-05-29 19:38:00,83.6,69.0,29.91,SE,127,1.0,2.0,61,0.00,,,0.00,weatherlink.com 1.10,2013-05-29 23:38:00,
2013-05-29 19:53:00,82.1,68.0,29.91,SE,127,1.0,4.0,63,0.00,,,0.00,weatherlink.com 1.10,2013-05-29 23:53:00,
2013-05-29 20:08:00,80.7,68.0,29.91,SE,127,1.0,2.0,65,0.00,,,0.00,weatherlink.com 1.10,2013-05-30 00:08:00,
2013-05-29 20:23:00,78.7,68.0,29.92,South,187,0.0,0.0,70,0.00,,,0.00,weatherlink.com 1.10,2013-05-30 00:23:00,
2013-05-29 20:38:00,75.9,68.0,29.92,South,187,0.0,0.0,76,0.00,,,0.00,weatherlink.com 1.10,2013-05-30 00:38:00,
2013-05-29 20:53:00,74.4,68.0,29.92,South,187,0.0,0.0,79,0.00,,,0.00,weatherlink.com 1.10,2013-05-30 00:53:00,
2013-05-29 21:08:00,72.4,67.0,29.93,South,187,0.0,0.0,83,0.00,,,0.00,weatherlink.com 1.10,2013-05-30 01:08:00,
2013-05-29 21:23:00,70.9,67.0,29.93,South,187,0.0,0.0,87,0.00,,,0.00,weatherlink.com 1.10,2013-05-30 01:23:00,
2013-05-29 21:38:00,70.0,66.0,29.93,South,187,0.0,0.0,88,0.00,,,0.00,weatherlink.com 1.10,2013-05-30 01:38:00,
2013-05-29 21:53:00,68.6,66.0,29.94,South,187,0.0,0.0,91,0.00,,,0.00,weatherlink.com 1.10,2013-05-30 01:53:00,
2013-05-29 22:08:00,67.8,66.0,29.95,SW,218,0.0,0.0,93,0.00,,,0.00,weatherlink.com 1.10,2013-05-30 02:08:00,
2013-05-29 22:23:00,67.4,66.0,29.96,SW,218,0.0,0.0,94,0.00,,,0.00,weatherlink.com 1.10,2013-05-30 02:23:00,
2013-05-29 22:38:00,66.7,65.0,29.97,West,262,1.0,1.0,94,0.00,,,0.00,weatherlink.com 1.10,2013-05-30 02:38:00,
2013-05-29 22:53:00,67.1,65.0,29.97,West,261,0.0,0.0,94,0.00,,,0.00,weatherlink.com 1.10,2013-05-30 02:53:00,
2013-05-29 23:08:00,66.8,65.0,29.98,West,262,0.0,0.0,93,0.00,,,0.00,weatherlink.com 1.10,2013-05-30 03:08:00,
2013-05-29 23:23:00,66.7,65.0,29.98,West,262,0.0,0.0,94,0.00,,,0.00,weatherlink.com 1.10,2013-05-30 03:23:00,
2013-05-29 23:38:00,66.7,65.0,29.98,West,262,0.0,0.0,94,0.00,,,0.00,weatherlink.com 1.10,2013-05-30 03:38:00,
2013-05-29 23:53:00,66.2,65.0,29.98,West,262,0.0,0.0,94,0.00,,,0.00,weatherlink.com 1.10,2013-05-30 03:53:00,